Cacuaco, Angola
Current Conditions -  °F | °C
As of 6:00 PM on Monday 22 Dec 2014 (Local Time) from FNLU Reporting Station
Broken Clouds Broken Clouds  
Wind Chill: 81°   Ceiling: 9000
Heat Index: 84°   Visibility: 6mi
Dew Point: 70°   Wind: 9mph
Humidity: 70%   Direction: 240°WSW
Pressure: 29.83"   Gusts: NA
Location:  8.78°S, 13.37°E
Report Text: FNLU 221700Z 24008KT 9999 SCT023 BKN090 27/21 Q1010 NOSIG
Loading
Personal Weather Stations






























Interactive Weather Map New forecast layout! Learn more

10-Day Weather Forecast

Advertisements
Track Severe Weather on mobile